sensor_id;sensor_type;location;lat;lon;timestamp;P1;durP1;ratioP1;P2;durP2;ratioP2
15261;SDS011;7733;51.554;13.590;2023-09-19T00:00:41;1.40;;;1.30;;
15261;SDS011;7733;51.554;13.590;2023-09-19T00:03:09;1.57;;;1.30;;
15261;SDS011;7733;51.554;13.590;2023-09-19T00:05:36;1.57;;;1.47;;
15261;SDS011;7733;51.554;13.590;2023-09-19T00:08:04;2.70;;;1.40;;
15261;SDS011;7733;51.554;13.590;2023-09-19T00:10:31;1.17;;;1.07;;
15261;SDS011;7733;51.554;13.590;2023-09-19T00:13:02;1.50;;;1.40;;
15261;SDS011;7733;51.554;13.590;2023-09-19T00:15:44;1.43;;;1.33;;
15261;SDS011;7733;51.554;13.590;2023-09-19T00:18:16;1.47;;;1.37;;
15261;SDS011;7733;51.554;13.590;2023-09-19T00:20:45;1.50;;;1.40;;
15261;SDS011;7733;51.554;13.590;2023-09-19T00:23:12;1.97;;;1.33;;
15261;SDS011;7733;51.554;13.590;2023-09-19T00:25:39;2.07;;;1.37;;
15261;SDS011;7733;51.554;13.590;2023-09-19T00:28:05;2.07;;;1.50;;
15261;SDS011;7733;51.554;13.590;2023-09-19T00:30:32;2.07;;;1.57;;
15261;SDS011;7733;51.554;13.590;2023-09-19T00:32:59;1.70;;;1.40;;
15261;SDS011;7733;51.554;13.590;2023-09-19T00:35:26;1.50;;;1.30;;
15261;SDS011;7733;51.554;13.590;2023-09-19T00:37:55;2.10;;;1.60;;
15261;SDS011;7733;51.554;13.590;2023-09-19T00:40:21;2.27;;;1.87;;
15261;SDS011;7733;51.554;13.590;2023-09-19T00:42:47;1.17;;;1.17;;
15261;SDS011;7733;51.554;13.590;2023-09-19T00:45:15;1.70;;;1.60;;
15261;SDS011;7733;51.554;13.590;2023-09-19T00:47:49;1.47;;;1.37;;
15261;SDS011;7733;51.554;13.590;2023-09-19T00:50:17;1.33;;;1.30;;
15261;SDS011;7733;51.554;13.590;2023-09-19T00:52:47;1.50;;;1.37;;
15261;SDS011;7733;51.554;13.590;2023-09-19T00:55:15;2.03;;;1.57;;
15261;SDS011;7733;51.554;13.590;2023-09-19T00:57:44;1.80;;;1.30;;
15261;SDS011;7733;51.554;13.590;2023-09-19T01:00:12;2.40;;;1.47;;
15261;SDS011;7733;51.554;13.590;2023-09-19T01:02:41;1.53;;;1.40;;
15261;SDS011;7733;51.554;13.590;2023-09-19T01:05:08;1.33;;;1.27;;
15261;SDS011;7733;51.554;13.590;2023-09-19T01:07:36;2.07;;;1.37;;
15261;SDS011;7733;51.554;13.590;2023-09-19T01:10:05;1.97;;;1.40;;
15261;SDS011;7733;51.554;13.590;2023-09-19T01:12:47;1.63;;;1.20;;
15261;SDS011;7733;51.554;13.590;2023-09-19T01:26:56;1.50;;;1.30;;
15261;SDS011;7733;51.554;13.590;2023-09-19T01:29:51;1.60;;;1.47;;
15261;SDS011;7733;51.554;13.590;2023-09-19T01:32:19;1.33;;;1.23;;
15261;SDS011;7733;51.554;13.590;2023-09-19T01:34:50;1.70;;;1.60;;
15261;SDS011;7733;51.554;13.590;2023-09-19T01:37:29;1.80;;;1.70;;
15261;SDS011;7733;51.554;13.590;2023-09-19T01:42:52;2.90;;;1.63;;
15261;SDS011;7733;51.554;13.590;2023-09-19T01:51:05;1.57;;;1.47;;
15261;SDS011;7733;51.554;13.590;2023-09-19T01:56:30;1.80;;;1.70;;
15261;SDS011;7733;51.554;13.590;2023-09-19T01:59:10;1.90;;;1.80;;
15261;SDS011;7733;51.554;13.590;2023-09-19T02:01:41;1.67;;;1.57;;
15261;SDS011;7733;51.554;13.590;2023-09-19T02:04:10;1.70;;;1.60;;
15261;SDS011;7733;51.554;13.590;2023-09-19T02:06:39;2.20;;;1.73;;
15261;SDS011;7733;51.554;13.590;2023-09-19T02:09:07;2.93;;;1.30;;
15261;SDS011;7733;51.554;13.590;2023-09-19T02:11:33;2.37;;;1.57;;
15261;SDS011;7733;51.554;13.590;2023-09-19T02:14:00;1.60;;;1.50;;
15261;SDS011;7733;51.554;13.590;2023-09-19T02:16:27;2.23;;;1.60;;
15261;SDS011;7733;51.554;13.590;2023-09-19T02:18:53;2.40;;;1.57;;
15261;SDS011;7733;51.554;13.590;2023-09-19T02:21:19;2.47;;;1.70;;
15261;SDS011;7733;51.554;13.590;2023-09-19T02:23:46;2.27;;;1.40;;
15261;SDS011;7733;51.554;13.590;2023-09-19T02:26:12;2.97;;;1.70;;
15261;SDS011;7733;51.554;13.590;2023-09-19T02:28:39;1.93;;;1.53;;
15261;SDS011;7733;51.554;13.590;2023-09-19T02:31:05;1.77;;;1.30;;
15261;SDS011;7733;51.554;13.590;2023-09-19T02:33:31;1.50;;;1.40;;
15261;SDS011;7733;51.554;13.590;2023-09-19T02:35:58;2.03;;;1.60;;
15261;SDS011;7733;51.554;13.590;2023-09-19T02:38:24;1.40;;;1.30;;
15261;SDS011;7733;51.554;13.590;2023-09-19T02:40:51;1.60;;;1.50;;
15261;SDS011;7733;51.554;13.590;2023-09-19T02:43:20;2.13;;;1.97;;
15261;SDS011;7733;51.554;13.590;2023-09-19T02:45:48;1.60;;;1.50;;
15261;SDS011;7733;51.554;13.590;2023-09-19T02:48:15;2.10;;;1.60;;
15261;SDS011;7733;51.554;13.590;2023-09-19T02:50:42;1.40;;;1.30;;
15261;SDS011;7733;51.554;13.590;2023-09-19T02:53:09;1.70;;;1.53;;
15261;SDS011;7733;51.554;13.590;2023-09-19T02:55:37;1.47;;;1.30;;
15261;SDS011;7733;51.554;13.590;2023-09-19T02:58:05;1.60;;;1.50;;
15261;SDS011;7733;51.554;13.590;2023-09-19T03:00:39;4.23;;;1.47;;
15261;SDS011;7733;51.554;13.590;2023-09-19T03:03:07;2.07;;;1.43;;
15261;SDS011;7733;51.554;13.590;2023-09-19T03:05:34;1.47;;;1.40;;
15261;SDS011;7733;51.554;13.590;2023-09-19T03:08:00;1.50;;;1.40;;
15261;SDS011;7733;51.554;13.590;2023-09-19T03:10:26;1.50;;;1.40;;
15261;SDS011;7733;51.554;13.590;2023-09-19T03:12:54;1.70;;;1.60;;
15261;SDS011;7733;51.554;13.590;2023-09-19T03:15:20;2.33;;;1.33;;
15261;SDS011;7733;51.554;13.590;2023-09-19T03:17:47;2.70;;;1.17;;
15261;SDS011;7733;51.554;13.590;2023-09-19T03:20:14;1.37;;;1.30;;
15261;SDS011;7733;51.554;13.590;2023-09-19T03:22:42;2.87;;;1.27;;
15261;SDS011;7733;51.554;13.590;2023-09-19T03:25:09;1.70;;;1.00;;
15261;SDS011;7733;51.554;13.590;2023-09-19T03:27:37;1.53;;;1.43;;
15261;SDS011;7733;51.554;13.590;2023-09-19T03:30:04;1.20;;;1.20;;
15261;SDS011;7733;51.554;13.590;2023-09-19T03:32:36;1.07;;;1.07;;
15261;SDS011;7733;51.554;13.590;2023-09-19T03:35:02;1.27;;;1.17;;
15261;SDS011;7733;51.554;13.590;2023-09-19T03:37:32;1.80;;;1.10;;
15261;SDS011;7733;51.554;13.590;2023-09-19T03:40:00;1.73;;;1.30;;
15261;SDS011;7733;51.554;13.590;2023-09-19T03:42:30;1.43;;;1.30;;
15261;SDS011;7733;51.554;13.590;2023-09-19T03:44:56;2.77;;;1.40;;
15261;SDS011;7733;51.554;13.590;2023-09-19T03:47:22;1.57;;;1.47;;
15261;SDS011;7733;51.554;13.590;2023-09-19T03:49:48;1.17;;;1.10;;
15261;SDS011;7733;51.554;13.590;2023-09-19T03:52:14;1.43;;;1.33;;
15261;SDS011;7733;51.554;13.590;2023-09-19T03:54:42;2.57;;;1.70;;
15261;SDS011;7733;51.554;13.590;2023-09-19T03:57:08;1.30;;;1.30;;
15261;SDS011;7733;51.554;13.590;2023-09-19T03:59:34;1.87;;;1.37;;
15261;SDS011;7733;51.554;13.590;2023-09-19T04:02:00;1.60;;;1.20;;
15261;SDS011;7733;51.554;13.590;2023-09-19T04:04:27;1.93;;;1.50;;
15261;SDS011;7733;51.554;13.590;2023-09-19T04:06:54;2.07;;;1.47;;
15261;SDS011;7733;51.554;13.590;2023-09-19T04:09:20;1.30;;;1.20;;
15261;SDS011;7733;51.554;13.590;2023-09-19T04:11:45;1.40;;;1.20;;
15261;SDS011;7733;51.554;13.590;2023-09-19T04:14:11;2.93;;;1.27;;
15261;SDS011;7733;51.554;13.590;2023-09-19T04:16:37;1.43;;;1.30;;
15261;SDS011;7733;51.554;13.590;2023-09-19T04:19:04;1.60;;;1.50;;
15261;SDS011;7733;51.554;13.590;2023-09-19T04:21:30;1.57;;;1.30;;
15261;SDS011;7733;51.554;13.590;2023-09-19T04:23:56;2.40;;;1.57;;
15261;SDS011;7733;51.554;13.590;2023-09-19T04:26:21;2.37;;;1.40;;
15261;SDS011;7733;51.554;13.590;2023-09-19T04:28:47;1.50;;;1.40;;
15261;SDS011;7733;51.554;13.590;2023-09-19T04:31:13;1.50;;;1.40;;
15261;SDS011;7733;51.554;13.590;2023-09-19T04:33:39;1.60;;;1.50;;
15261;SDS011;7733;51.554;13.590;2023-09-19T04:36:04;1.70;;;1.10;;
15261;SDS011;7733;51.554;13.590;2023-09-19T04:38:32;1.97;;;1.47;;
15261;SDS011;7733;51.554;13.590;2023-09-19T04:40:58;2.10;;;1.17;;
15261;SDS011;7733;51.554;13.590;2023-09-19T04:43:25;1.53;;;1.37;;
15261;SDS011;7733;51.554;13.590;2023-09-19T04:45:51;2.07;;;1.50;;
15261;SDS011;7733;51.554;13.590;2023-09-19T04:48:21;1.27;;;1.20;;
15261;SDS011;7733;51.554;13.590;2023-09-19T04:50:49;1.57;;;1.37;;
15261;SDS011;7733;51.554;13.590;2023-09-19T04:53:16;2.37;;;1.10;;
15261;SDS011;7733;51.554;13.590;2023-09-19T04:55:45;1.40;;;1.30;;
15261;SDS011;7733;51.554;13.590;2023-09-19T04:58:16;1.17;;;1.10;;
15261;SDS011;7733;51.554;13.590;2023-09-19T05:00:42;2.33;;;1.10;;
15261;SDS011;7733;51.554;13.590;2023-09-19T05:03:08;1.67;;;1.57;;
15261;SDS011;7733;51.554;13.590;2023-09-19T05:05:34;1.57;;;1.47;;
15261;SDS011;7733;51.554;13.590;2023-09-19T05:08:00;1.27;;;1.23;;
15261;SDS011;7733;51.554;13.590;2023-09-19T05:10:26;1.90;;;1.40;;
15261;SDS011;7733;51.554;13.590;2023-09-19T05:12:54;1.27;;;1.27;;
15261;SDS011;7733;51.554;13.590;2023-09-19T05:15:20;1.40;;;1.30;;
15261;SDS011;7733;51.554;13.590;2023-09-19T05:17:49;1.30;;;1.30;;
15261;SDS011;7733;51.554;13.590;2023-09-19T05:20:16;1.33;;;1.23;;
15261;SDS011;7733;51.554;13.590;2023-09-19T05:25:33;1.57;;;1.27;;
15261;SDS011;7733;51.554;13.590;2023-09-19T05:28:04;2.07;;;1.13;;
15261;SDS011;7733;51.554;13.590;2023-09-19T05:30:32;1.00;;;1.00;;
15261;SDS011;7733;51.554;13.590;2023-09-19T05:33:00;1.60;;;1.20;;
15261;SDS011;7733;51.554;13.590;2023-09-19T05:35:30;2.00;;;1.90;;
15261;SDS011;7733;51.554;13.590;2023-09-19T05:37:56;1.03;;;1.03;;
15261;SDS011;7733;51.554;13.590;2023-09-19T05:40:23;1.30;;;1.20;;
15261;SDS011;7733;51.554;13.590;2023-09-19T05:42:50;1.77;;;1.23;;
15261;SDS011;7733;51.554;13.590;2023-09-19T05:45:16;1.60;;;1.50;;
15261;SDS011;7733;51.554;13.590;2023-09-19T05:47:49;0.93;;;0.93;;
15261;SDS011;7733;51.554;13.590;2023-09-19T05:50:29;1.77;;;1.20;;
15261;SDS011;7733;51.554;13.590;2023-09-19T05:52:55;3.23;;;1.43;;
15261;SDS011;7733;51.554;13.590;2023-09-19T05:55:23;1.43;;;1.07;;
15261;SDS011;7733;51.554;13.590;2023-09-19T05:57:53;1.40;;;1.30;;
15261;SDS011;7733;51.554;13.590;2023-09-19T06:00:23;1.37;;;1.33;;
15261;SDS011;7733;51.554;13.590;2023-09-19T06:02:51;1.87;;;1.30;;
15261;SDS011;7733;51.554;13.590;2023-09-19T06:05:22;1.20;;;1.10;;
15261;SDS011;7733;51.554;13.590;2023-09-19T06:07:49;1.47;;;1.20;;
15261;SDS011;7733;51.554;13.590;2023-09-19T06:10:17;1.30;;;1.20;;
15261;SDS011;7733;51.554;13.590;2023-09-19T06:12:45;2.13;;;1.30;;
15261;SDS011;7733;51.554;13.590;2023-09-19T06:15:12;1.33;;;1.27;;
15261;SDS011;7733;51.554;13.590;2023-09-19T06:17:50;1.37;;;1.23;;
15261;SDS011;7733;51.554;13.590;2023-09-19T06:20:20;0.83;;;0.83;;
15261;SDS011;7733;51.554;13.590;2023-09-19T06:22:48;1.20;;;1.10;;
15261;SDS011;7733;51.554;13.590;2023-09-19T06:25:15;1.43;;;1.00;;
15261;SDS011;7733;51.554;13.590;2023-09-19T06:27:45;1.20;;;1.20;;
15261;SDS011;7733;51.554;13.590;2023-09-19T06:30:17;1.10;;;1.10;;
15261;SDS011;7733;51.554;13.590;2023-09-19T06:32:43;2.83;;;1.30;;
15261;SDS011;7733;51.554;13.590;2023-09-19T06:35:13;1.50;;;1.30;;
15261;SDS011;7733;51.554;13.590;2023-09-19T06:37:40;1.40;;;1.40;;
15261;SDS011;7733;51.554;13.590;2023-09-19T06:40:09;1.30;;;1.20;;
15261;SDS011;7733;51.554;13.590;2023-09-19T06:42:50;1.13;;;1.13;;
15261;SDS011;7733;51.554;13.590;2023-09-19T06:45:17;1.37;;;1.30;;
15261;SDS011;7733;51.554;13.590;2023-09-19T06:47:44;1.10;;;1.03;;
15261;SDS011;7733;51.554;13.590;2023-09-19T06:50:11;1.50;;;1.40;;
15261;SDS011;7733;51.554;13.590;2023-09-19T06:52:40;1.20;;;1.20;;
15261;SDS011;7733;51.554;13.590;2023-09-19T06:55:07;1.03;;;1.03;;
15261;SDS011;7733;51.554;13.590;2023-09-19T06:57:34;1.40;;;1.30;;
15261;SDS011;7733;51.554;13.590;2023-09-19T07:00:01;1.27;;;1.20;;
15261;SDS011;7733;51.554;13.590;2023-09-19T07:02:27;1.70;;;1.60;;
15261;SDS011;7733;51.554;13.590;2023-09-19T07:04:53;1.47;;;1.47;;
15261;SDS011;7733;51.554;13.590;2023-09-19T07:07:19;1.10;;;1.10;;
15261;SDS011;7733;51.554;13.590;2023-09-19T07:09:44;1.17;;;1.13;;
15261;SDS011;7733;51.554;13.590;2023-09-19T07:12:10;1.80;;;1.10;;
15261;SDS011;7733;51.554;13.590;2023-09-19T07:14:37;1.00;;;1.00;;
15261;SDS011;7733;51.554;13.590;2023-09-19T07:17:02;2.83;;;1.27;;
15261;SDS011;7733;51.554;13.590;2023-09-19T07:19:28;1.43;;;1.33;;
15261;SDS011;7733;51.554;13.590;2023-09-19T07:21:56;1.20;;;1.07;;
15261;SDS011;7733;51.554;13.590;2023-09-19T07:24:24;1.47;;;1.30;;
15261;SDS011;7733;51.554;13.590;2023-09-19T07:26:52;1.10;;;1.10;;
15261;SDS011;7733;51.554;13.590;2023-09-19T07:29:18;1.50;;;1.40;;
15261;SDS011;7733;51.554;13.590;2023-09-19T07:31:43;1.63;;;1.37;;
15261;SDS011;7733;51.554;13.590;2023-09-19T07:34:09;1.50;;;1.20;;
15261;SDS011;7733;51.554;13.590;2023-09-19T07:36:35;1.30;;;1.27;;
15261;SDS011;7733;51.554;13.590;2023-09-19T07:39:03;1.47;;;1.20;;
15261;SDS011;7733;51.554;13.590;2023-09-19T07:41:32;1.47;;;1.40;;
15261;SDS011;7733;51.554;13.590;2023-09-19T07:43:59;1.23;;;1.20;;
15261;SDS011;7733;51.554;13.590;2023-09-19T07:46:24;1.23;;;1.13;;
15261;SDS011;7733;51.554;13.590;2023-09-19T07:48:51;1.20;;;1.10;;
15261;SDS011;7733;51.554;13.590;2023-09-19T07:51:17;1.37;;;1.27;;
15261;SDS011;7733;51.554;13.590;2023-09-19T07:53:43;2.87;;;1.40;;
15261;SDS011;7733;51.554;13.590;2023-09-19T07:56:09;1.20;;;1.20;;
15261;SDS011;7733;51.554;13.590;2023-09-19T07:58:35;1.10;;;1.10;;
15261;SDS011;7733;51.554;13.590;2023-09-19T08:01:06;1.10;;;1.10;;
15261;SDS011;7733;51.554;13.590;2023-09-19T08:03:33;3.23;;;1.13;;
15261;SDS011;7733;51.554;13.590;2023-09-19T08:05:59;1.70;;;1.30;;
15261;SDS011;7733;51.554;13.590;2023-09-19T08:08:26;1.20;;;1.10;;
15261;SDS011;7733;51.554;13.590;2023-09-19T08:10:56;1.20;;;1.10;;
15261;SDS011;7733;51.554;13.590;2023-09-19T08:13:25;1.13;;;1.13;;
15261;SDS011;7733;51.554;13.590;2023-09-19T08:15:51;1.30;;;1.20;;
15261;SDS011;7733;51.554;13.590;2023-09-19T08:18:21;1.10;;;1.10;;
15261;SDS011;7733;51.554;13.590;2023-09-19T08:20:50;1.90;;;1.13;;
15261;SDS011;7733;51.554;13.590;2023-09-19T08:23:18;1.93;;;1.30;;
15261;SDS011;7733;51.554;13.590;2023-09-19T08:25:46;1.17;;;1.07;;
15261;SDS011;7733;51.554;13.590;2023-09-19T08:28:12;1.33;;;1.10;;
15261;SDS011;7733;51.554;13.590;2023-09-19T08:30:43;1.63;;;1.20;;
15261;SDS011;7733;51.554;13.590;2023-09-19T08:33:11;1.23;;;1.13;;
15261;SDS011;7733;51.554;13.590;2023-09-19T08:35:37;1.80;;;1.20;;
15261;SDS011;7733;51.554;13.590;2023-09-19T08:38:04;1.10;;;1.03;;
15261;SDS011;7733;51.554;13.590;2023-09-19T08:40:31;1.43;;;1.23;;
15261;SDS011;7733;51.554;13.590;2023-09-19T08:43:01;1.17;;;1.17;;
15261;SDS011;7733;51.554;13.590;2023-09-19T08:45:28;4.93;;;1.50;;
15261;SDS011;7733;51.554;13.590;2023-09-19T08:51:05;1.73;;;1.07;;
15261;SDS011;7733;51.554;13.590;2023-09-19T08:56:08;1.20;;;1.10;;
15261;SDS011;7733;51.554;13.590;2023-09-19T08:58:43;1.10;;;1.10;;
15261;SDS011;7733;51.554;13.590;2023-09-19T09:01:15;2.97;;;1.27;;
15261;SDS011;7733;51.554;13.590;2023-09-19T09:03:42;1.40;;;1.30;;
15261;SDS011;7733;51.554;13.590;2023-09-19T09:06:13;1.33;;;1.20;;
15261;SDS011;7733;51.554;13.590;2023-09-19T09:08:41;1.30;;;1.20;;
15261;SDS011;7733;51.554;13.590;2023-09-19T09:11:08;1.20;;;1.13;;
15261;SDS011;7733;51.554;13.590;2023-09-19T09:13:35;2.90;;;1.40;;
15261;SDS011;7733;51.554;13.590;2023-09-19T09:16:02;0.77;;;0.77;;
15261;SDS011;7733;51.554;13.590;2023-09-19T09:18:28;1.80;;;1.50;;
15261;SDS011;7733;51.554;13.590;2023-09-19T09:20:55;2.40;;;1.20;;
15261;SDS011;7733;51.554;13.590;2023-09-19T09:23:21;1.27;;;1.20;;
15261;SDS011;7733;51.554;13.590;2023-09-19T09:25:53;0.97;;;0.93;;
15261;SDS011;7733;51.554;13.590;2023-09-19T09:28:32;2.97;;;1.37;;
15261;SDS011;7733;51.554;13.590;2023-09-19T09:31:00;1.17;;;1.10;;
15261;SDS011;7733;51.554;13.590;2023-09-19T09:33:34;1.07;;;1.00;;
15261;SDS011;7733;51.554;13.590;2023-09-19T09:36:01;1.37;;;1.27;;
15261;SDS011;7733;51.554;13.590;2023-09-19T09:38:29;1.13;;;0.97;;
15261;SDS011;7733;51.554;13.590;2023-09-19T09:41:09;1.13;;;1.10;;
15261;SDS011;7733;51.554;13.590;2023-09-19T09:43:37;1.97;;;1.33;;
15261;SDS011;7733;51.554;13.590;2023-09-19T09:46:12;2.13;;;0.93;;
15261;SDS011;7733;51.554;13.590;2023-09-19T09:49:02;2.93;;;1.17;;
15261;SDS011;7733;51.554;13.590;2023-09-19T09:51:43;2.73;;;1.37;;
15261;SDS011;7733;51.554;13.590;2023-09-19T09:54:24;2.83;;;1.20;;
15261;SDS011;7733;51.554;13.590;2023-09-19T09:56:58;2.30;;;1.23;;
15261;SDS011;7733;51.554;13.590;2023-09-19T09:59:52;1.20;;;1.10;;
15261;SDS011;7733;51.554;13.590;2023-09-19T10:02:29;1.23;;;1.20;;
15261;SDS011;7733;51.554;13.590;2023-09-19T10:05:12;2.83;;;1.60;;
15261;SDS011;7733;51.554;13.590;2023-09-19T10:07:46;2.23;;;1.20;;
15261;SDS011;7733;51.554;13.590;2023-09-19T10:13:09;1.73;;;1.30;;
15261;SDS011;7733;51.554;13.590;2023-09-19T10:15:42;1.60;;;1.10;;
15261;SDS011;7733;51.554;13.590;2023-09-19T10:18:17;1.63;;;1.40;;
15261;SDS011;7733;51.554;13.590;2023-09-19T10:20:47;1.90;;;1.43;;
15261;SDS011;7733;51.554;13.590;2023-09-19T10:23:17;1.47;;;1.20;;
15261;SDS011;7733;51.554;13.590;2023-09-19T10:25:51;1.20;;;0.93;;
15261;SDS011;7733;51.554;13.590;2023-09-19T10:28:18;4.30;;;1.07;;
15261;SDS011;7733;51.554;13.590;2023-09-19T10:30:52;1.27;;;1.20;;
15261;SDS011;7733;51.554;13.590;2023-09-19T10:33:20;1.77;;;1.30;;
15261;SDS011;7733;51.554;13.590;2023-09-19T10:35:50;1.70;;;1.53;;
15261;SDS011;7733;51.554;13.590;2023-09-19T10:38:17;3.40;;;2.80;;
15261;SDS011;7733;51.554;13.590;2023-09-19T10:40:48;1.40;;;1.20;;
15261;SDS011;7733;51.554;13.590;2023-09-19T10:43:17;2.87;;;1.53;;
15261;SDS011;7733;51.554;13.590;2023-09-19T10:45:50;3.67;;;1.90;;
15261;SDS011;7733;51.554;13.590;2023-09-19T10:48:18;2.60;;;1.50;;
15261;SDS011;7733;51.554;13.590;2023-09-19T10:53:41;1.93;;;1.83;;
15261;SDS011;7733;51.554;13.590;2023-09-19T10:56:26;3.43;;;1.80;;
15261;SDS011;7733;51.554;13.590;2023-09-19T10:59:08;2.20;;;1.50;;
15261;SDS011;7733;51.554;13.590;2023-09-19T11:01:51;1.90;;;1.80;;
15261;SDS011;7733;51.554;13.590;2023-09-19T11:06:59;2.00;;;1.80;;
15261;SDS011;7733;51.554;13.590;2023-09-19T11:15:06;2.13;;;1.67;;
15261;SDS011;7733;51.554;13.590;2023-09-19T11:17:34;2.33;;;1.43;;
15261;SDS011;7733;51.554;13.590;2023-09-19T11:30:37;3.77;;;1.80;;
15261;SDS011;7733;51.554;13.590;2023-09-19T11:33:21;1.63;;;1.53;;
15261;SDS011;7733;51.554;13.590;2023-09-19T11:43:46;1.60;;;1.50;;
15261;SDS011;7733;51.554;13.590;2023-09-19T11:46:19;1.57;;;1.50;;
15261;SDS011;7733;51.554;13.590;2023-09-19T11:48:50;2.00;;;1.70;;
15261;SDS011;7733;51.554;13.590;2023-09-19T11:51:18;1.87;;;1.60;;
15261;SDS011;7733;51.554;13.590;2023-09-19T11:53:52;2.07;;;1.63;;
15261;SDS011;7733;51.554;13.590;2023-09-19T11:56:25;1.40;;;1.40;;
15261;SDS011;7733;51.554;13.590;2023-09-19T11:58:56;1.47;;;1.40;;
15261;SDS011;7733;51.554;13.590;2023-09-19T12:01:34;2.30;;;1.60;;
15261;SDS011;7733;51.554;13.590;2023-09-19T12:04:01;1.60;;;1.50;;
15261;SDS011;7733;51.554;13.590;2023-09-19T12:06:29;1.43;;;1.33;;
15261;SDS011;7733;51.554;13.590;2023-09-19T12:08:57;1.70;;;1.60;;
15261;SDS011;7733;51.554;13.590;2023-09-19T12:11:26;1.43;;;1.30;;
15261;SDS011;7733;51.554;13.590;2023-09-19T12:13:58;2.57;;;1.43;;
15261;SDS011;7733;51.554;13.590;2023-09-19T12:16:26;2.53;;;1.30;;
15261;SDS011;7733;51.554;13.590;2023-09-19T12:18:56;2.67;;;1.50;;
15261;SDS011;7733;51.554;13.590;2023-09-19T12:21:27;1.70;;;1.60;;
15261;SDS011;7733;51.554;13.590;2023-09-19T12:26:43;2.00;;;1.40;;
15261;SDS011;7733;51.554;13.590;2023-09-19T12:29:16;1.57;;;1.47;;
15261;SDS011;7733;51.554;13.590;2023-09-19T12:31:50;1.30;;;1.30;;
15261;SDS011;7733;51.554;13.590;2023-09-19T12:34:28;2.90;;;1.77;;
15261;SDS011;7733;51.554;13.590;2023-09-19T12:37:09;2.17;;;1.50;;
15261;SDS011;7733;51.554;13.590;2023-09-19T12:39:52;3.17;;;1.40;;
15261;SDS011;7733;51.554;13.590;2023-09-19T12:42:39;7.23;;;1.50;;
15261;SDS011;7733;51.554;13.590;2023-09-19T12:45:06;1.57;;;1.47;;
15261;SDS011;7733;51.554;13.590;2023-09-19T12:47:38;1.83;;;1.60;;
15261;SDS011;7733;51.554;13.590;2023-09-19T12:50:11;2.23;;;1.80;;
15261;SDS011;7733;51.554;13.590;2023-09-19T12:55:46;2.93;;;1.40;;
15261;SDS011;7733;51.554;13.590;2023-09-19T13:00:44;2.10;;;1.53;;
15261;SDS011;7733;51.554;13.590;2023-09-19T13:03:11;2.03;;;1.87;;
15261;SDS011;7733;51.554;13.590;2023-09-19T13:06:02;2.03;;;1.70;;
15261;SDS011;7733;51.554;13.590;2023-09-19T13:08:33;2.57;;;1.87;;
15261;SDS011;7733;51.554;13.590;2023-09-19T13:16:19;2.07;;;1.30;;
15261;SDS011;7733;51.554;13.590;2023-09-19T13:18:53;1.73;;;1.53;;
15261;SDS011;7733;51.554;13.590;2023-09-19T13:21:32;2.60;;;1.40;;
15261;SDS011;7733;51.554;13.590;2023-09-19T13:24:18;3.10;;;1.63;;
15261;SDS011;7733;51.554;13.590;2023-09-19T13:26:50;1.90;;;1.33;;
15261;SDS011;7733;51.554;13.590;2023-09-19T13:29:16;2.00;;;1.80;;
15261;SDS011;7733;51.554;13.590;2023-09-19T13:31:52;2.30;;;1.50;;
15261;SDS011;7733;51.554;13.590;2023-09-19T13:34:18;1.30;;;1.20;;
15261;SDS011;7733;51.554;13.590;2023-09-19T13:36:45;1.60;;;1.50;;
15261;SDS011;7733;51.554;13.590;2023-09-19T13:39:13;2.77;;;1.57;;
15261;SDS011;7733;51.554;13.590;2023-09-19T13:41:45;1.70;;;1.60;;
15261;SDS011;7733;51.554;13.590;2023-09-19T13:44:14;1.80;;;1.63;;
15261;SDS011;7733;51.554;13.590;2023-09-19T13:46:42;5.37;;;1.50;;
15261;SDS011;7733;51.554;13.590;2023-09-19T13:49:10;2.90;;;1.90;;
15261;SDS011;7733;51.554;13.590;2023-09-19T13:51:36;3.87;;;2.00;;
15261;SDS011;7733;51.554;13.590;2023-09-19T13:54:02;2.13;;;1.93;;
15261;SDS011;7733;51.554;13.590;2023-09-19T13:56:28;2.00;;;1.87;;
15261;SDS011;7733;51.554;13.590;2023-09-19T13:58:56;5.80;;;1.77;;
15261;SDS011;7733;51.554;13.590;2023-09-19T14:01:22;2.23;;;1.87;;
15261;SDS011;7733;51.554;13.590;2023-09-19T14:03:47;2.83;;;2.00;;
15261;SDS011;7733;51.554;13.590;2023-09-19T14:06:15;1.90;;;1.70;;
15261;SDS011;7733;51.554;13.590;2023-09-19T14:08:42;2.23;;;1.70;;
15261;SDS011;7733;51.554;13.590;2023-09-19T14:11:12;2.43;;;1.67;;
15261;SDS011;7733;51.554;13.590;2023-09-19T14:13:39;2.20;;;2.00;;
15261;SDS011;7733;51.554;13.590;2023-09-19T14:16:05;1.97;;;1.80;;
15261;SDS011;7733;51.554;13.590;2023-09-19T14:18:33;2.30;;;2.10;;
15261;SDS011;7733;51.554;13.590;2023-09-19T14:21:06;3.63;;;2.00;;
15261;SDS011;7733;51.554;13.590;2023-09-19T14:23:36;4.67;;;1.70;;
15261;SDS011;7733;51.554;13.590;2023-09-19T14:26:03;3.07;;;2.87;;
15261;SDS011;7733;51.554;13.590;2023-09-19T14:28:30;2.40;;;1.90;;
15261;SDS011;7733;51.554;13.590;2023-09-19T14:31:03;2.10;;;1.90;;
15261;SDS011;7733;51.554;13.590;2023-09-19T14:33:38;2.77;;;1.80;;
15261;SDS011;7733;51.554;13.590;2023-09-19T14:36:07;2.20;;;2.00;;
15261;SDS011;7733;51.554;13.590;2023-09-19T14:38:35;2.13;;;1.80;;
15261;SDS011;7733;51.554;13.590;2023-09-19T14:41:03;2.13;;;1.93;;
15261;SDS011;7733;51.554;13.590;2023-09-19T14:43:31;2.60;;;2.20;;
15261;SDS011;7733;51.554;13.590;2023-09-19T14:46:07;3.07;;;2.27;;
15261;SDS011;7733;51.554;13.590;2023-09-19T14:48:34;2.90;;;2.10;;
15261;SDS011;7733;51.554;13.590;2023-09-19T14:51:03;2.40;;;1.90;;
15261;SDS011;7733;51.554;13.590;2023-09-19T14:53:31;1.93;;;1.67;;
15261;SDS011;7733;51.554;13.590;2023-09-19T14:56:00;2.37;;;2.20;;
15261;SDS011;7733;51.554;13.590;2023-09-19T14:58:30;3.37;;;1.80;;
15261;SDS011;7733;51.554;13.590;2023-09-19T15:01:06;2.33;;;2.13;;
15261;SDS011;7733;51.554;13.590;2023-09-19T15:03:38;3.07;;;1.80;;
15261;SDS011;7733;51.554;13.590;2023-09-19T15:06:06;2.33;;;2.13;;
15261;SDS011;7733;51.554;13.590;2023-09-19T15:08:35;4.23;;;1.83;;
15261;SDS011;7733;51.554;13.590;2023-09-19T15:11:05;2.27;;;2.10;;
15261;SDS011;7733;51.554;13.590;2023-09-19T15:13:32;3.47;;;2.00;;
15261;SDS011;7733;51.554;13.590;2023-09-19T15:16:08;2.63;;;1.70;;
15261;SDS011;7733;51.554;13.590;2023-09-19T15:18:34;1.87;;;1.77;;
15261;SDS011;7733;51.554;13.590;2023-09-19T15:21:02;2.47;;;2.27;;
15261;SDS011;7733;51.554;13.590;2023-09-19T15:23:29;2.10;;;2.00;;
15261;SDS011;7733;51.554;13.590;2023-09-19T15:26:05;1.97;;;1.70;;
15261;SDS011;7733;51.554;13.590;2023-09-19T15:28:42;4.60;;;2.00;;
15261;SDS011;7733;51.554;13.590;2023-09-19T15:31:08;3.00;;;1.97;;
15261;SDS011;7733;51.554;13.590;2023-09-19T15:33:36;2.20;;;2.10;;
15261;SDS011;7733;51.554;13.590;2023-09-19T15:36:03;3.23;;;2.03;;
15261;SDS011;7733;51.554;13.590;2023-09-19T15:41:31;2.60;;;1.80;;
15261;SDS011;7733;51.554;13.590;2023-09-19T15:44:00;2.43;;;1.50;;
15261;SDS011;7733;51.554;13.590;2023-09-19T15:46:28;3.53;;;2.27;;
15261;SDS011;7733;51.554;13.590;2023-09-19T15:48:56;2.70;;;1.97;;
15261;SDS011;7733;51.554;13.590;2023-09-19T15:51:23;4.90;;;1.97;;
15261;SDS011;7733;51.554;13.590;2023-09-19T15:53:52;2.53;;;2.03;;
15261;SDS011;7733;51.554;13.590;2023-09-19T15:56:21;2.17;;;1.97;;
15261;SDS011;7733;51.554;13.590;2023-09-19T15:58:49;2.07;;;1.70;;
15261;SDS011;7733;51.554;13.590;2023-09-19T16:01:17;2.60;;;2.10;;
15261;SDS011;7733;51.554;13.590;2023-09-19T16:03:44;2.50;;;2.10;;
15261;SDS011;7733;51.554;13.590;2023-09-19T16:06:17;3.70;;;1.90;;
15261;SDS011;7733;51.554;13.590;2023-09-19T16:08:46;4.57;;;2.20;;
15261;SDS011;7733;51.554;13.590;2023-09-19T16:11:14;2.00;;;1.90;;
15261;SDS011;7733;51.554;13.590;2023-09-19T16:13:42;2.10;;;2.00;;
15261;SDS011;7733;51.554;13.590;2023-09-19T16:16:10;2.30;;;2.10;;
15261;SDS011;7733;51.554;13.590;2023-09-19T16:18:50;2.00;;;1.90;;
15261;SDS011;7733;51.554;13.590;2023-09-19T16:21:17;1.87;;;1.77;;